sensor_id;sensor_type;location;lat;lon;timestamp;pressure;altitude;pressure_sealevel;temperature;humidity
20119;BME280;10220;42.716;23.306;2023-04-21T00:01:29;94886.38;;;12.41;100.00
20119;BME280;10220;42.716;23.306;2023-04-21T00:03:56;94883.34;;;12.85;100.00
20119;BME280;10220;42.716;23.306;2023-04-21T00:06:21;94864.19;;;13.32;100.00
20119;BME280;10220;42.716;23.306;2023-04-21T00:08:50;94871.34;;;13.87;100.00
20119;BME280;10220;42.716;23.306;2023-04-21T00:11:15;94859.19;;;12.96;100.00
20119;BME280;10220;42.716;23.306;2023-04-21T00:13:41;94876.47;;;13.02;100.00
20119;BME280;10220;42.716;23.306;2023-04-21T00:16:06;94875.50;;;13.14;100.00
20119;BME280;10220;42.716;23.306;2023-04-21T00:18:32;94871.97;;;13.20;100.00
20119;BME280;10220;42.716;23.306;2023-04-21T00:20:58;94873.81;;;13.31;100.00
20119;BME280;10220;42.716;23.306;2023-04-21T00:23:23;94867.03;;;13.92;100.00
20119;BME280;10220;42.716;23.306;2023-04-21T00:25:49;94870.47;;;14.20;100.00
20119;BME280;10220;42.716;23.306;2023-04-21T00:28:14;94865.63;;;13.62;100.00
20119;BME280;10220;42.716;23.306;2023-04-21T00:30:40;94864.41;;;12.96;100.00
20119;BME280;10220;42.716;23.306;2023-04-21T00:33:05;94861.09;;;13.69;100.00
20119;BME280;10220;42.716;23.306;2023-04-21T00:35:30;94859.09;;;13.48;100.00
20119;BME280;10220;42.716;23.306;2023-04-21T00:37:56;94881.47;;;13.60;100.00
20119;BME280;10220;42.716;23.306;2023-04-21T00:40:21;94872.78;;;13.09;100.00
20119;BME280;10220;42.716;23.306;2023-04-21T00:42:47;94871.28;;;13.70;100.00
20119;BME280;10220;42.716;23.306;2023-04-21T00:45:12;94882.72;;;13.12;100.00
20119;BME280;10220;42.716;23.306;2023-04-21T00:47:39;94869.28;;;12.75;100.00
20119;BME280;10220;42.716;23.306;2023-04-21T00:50:05;94875.97;;;12.12;100.00
20119;BME280;10220;42.716;23.306;2023-04-21T00:52:31;94869.66;;;11.90;100.00
20119;BME280;10220;42.716;23.306;2023-04-21T00:54:58;94872.34;;;11.66;100.00
20119;BME280;10220;42.716;23.306;2023-04-21T00:57:24;94862.16;;;11.65;100.00
20119;BME280;10220;42.716;23.306;2023-04-21T00:59:49;94852.63;;;11.94;100.00
20119;BME280;10220;42.716;23.306;2023-04-21T01:02:16;94865.91;;;11.86;100.00
20119;BME280;10220;42.716;23.306;2023-04-21T01:04:42;94863.47;;;12.50;100.00
20119;BME280;10220;42.716;23.306;2023-04-21T01:07:08;94862.78;;;12.43;100.00
20119;BME280;10220;42.716;23.306;2023-04-21T01:09:34;94856.63;;;12.67;100.00
20119;BME280;10220;42.716;23.306;2023-04-21T01:14:26;94870.41;;;14.04;100.00
20119;BME280;10220;42.716;23.306;2023-04-21T01:16:51;94861.81;;;13.53;100.00
20119;BME280;10220;42.716;23.306;2023-04-21T01:19:17;94868.03;;;13.41;100.00
20119;BME280;10220;42.716;23.306;2023-04-21T01:21:44;94836.22;;;13.39;100.00
20119;BME280;10220;42.716;23.306;2023-04-21T01:24:09;94867.00;;;12.96;100.00
20119;BME280;10220;42.716;23.306;2023-04-21T01:26:36;94865.69;;;12.76;100.00
20119;BME280;10220;42.716;23.306;2023-04-21T01:29:01;94870.28;;;12.74;100.00
20119;BME280;10220;42.716;23.306;2023-04-21T01:31:26;94861.59;;;12.68;100.00
20119;BME280;10220;42.716;23.306;2023-04-21T01:33:52;94866.25;;;12.66;100.00
20119;BME280;10220;42.716;23.306;2023-04-21T01:36:17;94860.31;;;11.54;100.00
20119;BME280;10220;42.716;23.306;2023-04-21T01:38:43;94862.75;;;10.82;100.00
20119;BME280;10220;42.716;23.306;2023-04-21T01:41:09;94863.38;;;10.23;100.00
20119;BME280;10220;42.716;23.306;2023-04-21T01:43:35;94858.63;;;10.99;100.00
20119;BME280;10220;42.716;23.306;2023-04-21T01:46:01;94849.00;;;10.57;100.00
20119;BME280;10220;42.716;23.306;2023-04-21T01:48:27;94836.53;;;10.48;100.00
20119;BME280;10220;42.716;23.306;2023-04-21T01:50:52;94854.72;;;10.66;100.00
20119;BME280;10220;42.716;23.306;2023-04-21T01:53:18;94839.19;;;11.32;100.00
20119;BME280;10220;42.716;23.306;2023-04-21T01:55:43;94845.75;;;11.88;100.00
20119;BME280;10220;42.716;23.306;2023-04-21T01:58:09;94847.44;;;11.94;100.00
20119;BME280;10220;42.716;23.306;2023-04-21T02:00:34;94838.22;;;12.28;100.00
20119;BME280;10220;42.716;23.306;2023-04-21T02:02:59;94854.94;;;12.02;100.00
20119;BME280;10220;42.716;23.306;2023-04-21T02:05:25;94855.31;;;12.35;100.00
20119;BME280;10220;42.716;23.306;2023-04-21T02:07:50;94827.22;;;11.85;100.00
20119;BME280;10220;42.716;23.306;2023-04-21T02:10:16;94862.31;;;11.87;100.00
20119;BME280;10220;42.716;23.306;2023-04-21T02:12:41;94863.25;;;11.93;100.00
20119;BME280;10220;42.716;23.306;2023-04-21T02:15:07;94859.28;;;11.90;100.00
20119;BME280;10220;42.716;23.306;2023-04-21T02:17:33;94850.41;;;11.98;100.00
20119;BME280;10220;42.716;23.306;2023-04-21T02:19:58;94860.72;;;11.86;100.00
20119;BME280;10220;42.716;23.306;2023-04-21T02:22:24;94855.44;;;12.11;100.00
20119;BME280;10220;42.716;23.306;2023-04-21T02:24:49;94847.41;;;11.83;100.00
20119;BME280;10220;42.716;23.306;2023-04-21T02:27:15;94854.84;;;12.38;100.00
20119;BME280;10220;42.716;23.306;2023-04-21T02:29:40;94847.31;;;11.18;100.00
20119;BME280;10220;42.716;23.306;2023-04-21T02:32:06;94855.94;;;11.48;100.00
20119;BME280;10220;42.716;23.306;2023-04-21T02:34:32;94858.84;;;10.98;100.00
20119;BME280;10220;42.716;23.306;2023-04-21T02:36:57;94849.25;;;10.98;100.00
20119;BME280;10220;42.716;23.306;2023-04-21T02:39:24;94831.81;;;10.87;100.00
20119;BME280;10220;42.716;23.306;2023-04-21T02:41:49;94855.59;;;11.02;100.00
20119;BME280;10220;42.716;23.306;2023-04-21T02:44:14;94851.41;;;10.83;100.00
20119;BME280;10220;42.716;23.306;2023-04-21T02:46:40;94856.59;;;10.83;100.00
20119;BME280;10220;42.716;23.306;2023-04-21T02:49:06;94855.00;;;10.82;100.00
20119;BME280;10220;42.716;23.306;2023-04-21T02:51:31;94850.00;;;10.56;100.00
20119;BME280;10220;42.716;23.306;2023-04-21T02:53:56;94837.78;;;11.48;100.00
20119;BME280;10220;42.716;23.306;2023-04-21T02:56:22;94856.19;;;11.04;100.00
20119;BME280;10220;42.716;23.306;2023-04-21T02:58:47;94838.50;;;11.19;100.00
20119;BME280;10220;42.716;23.306;2023-04-21T03:01:13;94851.00;;;12.00;100.00
20119;BME280;10220;42.716;23.306;2023-04-21T03:03:38;94860.09;;;11.91;100.00
20119;BME280;10220;42.716;23.306;2023-04-21T03:06:04;94865.84;;;11.75;100.00
20119;BME280;10220;42.716;23.306;2023-04-21T03:08:30;94859.09;;;12.21;100.00
20119;BME280;10220;42.716;23.306;2023-04-21T03:10:56;94836.44;;;11.45;100.00
20119;BME280;10220;42.716;23.306;2023-04-21T03:13:22;94849.88;;;11.36;100.00
20119;BME280;10220;42.716;23.306;2023-04-21T03:15:48;94847.78;;;11.51;100.00
20119;BME280;10220;42.716;23.306;2023-04-21T03:18:14;94852.81;;;11.64;100.00
20119;BME280;10220;42.716;23.306;2023-04-21T03:20:39;94855.91;;;11.54;100.00
20119;BME280;10220;42.716;23.306;2023-04-21T03:23:05;94863.56;;;11.25;100.00
20119;BME280;10220;42.716;23.306;2023-04-21T03:25:30;94863.16;;;11.04;100.00
20119;BME280;10220;42.716;23.306;2023-04-21T03:27:56;94852.41;;;11.24;100.00
20119;BME280;10220;42.716;23.306;2023-04-21T03:30:22;94872.25;;;11.12;100.00
20119;BME280;10220;42.716;23.306;2023-04-21T03:32:49;94847.53;;;10.92;100.00
20119;BME280;10220;42.716;23.306;2023-04-21T03:35:15;94855.47;;;10.97;100.00
20119;BME280;10220;42.716;23.306;2023-04-21T03:37:41;94859.06;;;10.96;100.00
20119;BME280;10220;42.716;23.306;2023-04-21T03:40:07;94854.13;;;11.30;100.00
20119;BME280;10220;42.716;23.306;2023-04-21T03:42:35;94858.34;;;11.67;100.00
20119;BME280;10220;42.716;23.306;2023-04-21T03:45:02;94866.63;;;10.73;100.00
20119;BME280;10220;42.716;23.306;2023-04-21T03:47:27;94866.34;;;11.06;100.00
20119;BME280;10220;42.716;23.306;2023-04-21T03:49:53;94865.97;;;11.02;100.00
20119;BME280;10220;42.716;23.306;2023-04-21T03:52:18;94859.34;;;11.48;100.00
20119;BME280;10220;42.716;23.306;2023-04-21T03:54:44;94872.28;;;11.30;100.00
20119;BME280;10220;42.716;23.306;2023-04-21T03:57:09;94878.91;;;11.26;100.00
20119;BME280;10220;42.716;23.306;2023-04-21T03:59:35;94882.31;;;10.78;100.00
20119;BME280;10220;42.716;23.306;2023-04-21T04:02:00;94866.72;;;10.85;100.00
20119;BME280;10220;42.716;23.306;2023-04-21T04:04:26;94878.72;;;11.04;100.00
20119;BME280;10220;42.716;23.306;2023-04-21T04:06:51;94875.09;;;11.53;100.00
20119;BME280;10220;42.716;23.306;2023-04-21T04:09:16;94871.50;;;11.48;100.00
20119;BME280;10220;42.716;23.306;2023-04-21T04:11:42;94890.59;;;11.35;100.00
20119;BME280;10220;42.716;23.306;2023-04-21T04:14:07;94893.25;;;11.89;100.00
20119;BME280;10220;42.716;23.306;2023-04-21T04:16:33;94889.03;;;12.64;100.00
20119;BME280;10220;42.716;23.306;2023-04-21T04:18:59;94900.34;;;12.70;100.00
20119;BME280;10220;42.716;23.306;2023-04-21T04:21:25;94907.34;;;12.87;100.00
20119;BME280;10220;42.716;23.306;2023-04-21T04:23:51;94887.84;;;12.78;100.00
20119;BME280;10220;42.716;23.306;2023-04-21T04:26:17;94911.25;;;12.20;100.00
20119;BME280;10220;42.716;23.306;2023-04-21T04:28:43;94909.84;;;12.64;100.00
20119;BME280;10220;42.716;23.306;2023-04-21T04:31:09;94912.03;;;12.20;100.00
20119;BME280;10220;42.716;23.306;2023-04-21T04:33:34;94912.69;;;12.16;100.00
20119;BME280;10220;42.716;23.306;2023-04-21T04:36:00;94908.03;;;13.05;100.00
20119;BME280;10220;42.716;23.306;2023-04-21T04:38:26;94901.03;;;13.17;100.00
20119;BME280;10220;42.716;23.306;2023-04-21T04:40:55;94901.47;;;13.03;100.00
20119;BME280;10220;42.716;23.306;2023-04-21T04:43:26;94913.47;;;12.75;100.00
20119;BME280;10220;42.716;23.306;2023-04-21T04:45:51;94913.75;;;12.55;100.00
20119;BME280;10220;42.716;23.306;2023-04-21T04:48:17;94900.94;;;12.42;100.00
20119;BME280;10220;42.716;23.306;2023-04-21T04:50:43;94924.88;;;13.03;100.00
20119;BME280;10220;42.716;23.306;2023-04-21T04:53:08;94920.25;;;12.46;100.00
20119;BME280;10220;42.716;23.306;2023-04-21T04:55:34;94917.66;;;12.46;100.00
20119;BME280;10220;42.716;23.306;2023-04-21T04:57:59;94918.44;;;13.05;100.00
20119;BME280;10220;42.716;23.306;2023-04-21T05:00:26;94905.34;;;12.42;100.00
20119;BME280;10220;42.716;23.306;2023-04-21T05:02:53;94923.63;;;12.94;100.00
20119;BME280;10220;42.716;23.306;2023-04-21T05:05:18;94925.59;;;12.81;100.00
20119;BME280;10220;42.716;23.306;2023-04-21T05:07:44;94928.69;;;12.89;100.00
20119;BME280;10220;42.716;23.306;2023-04-21T05:10:10;94923.66;;;13.05;100.00
20119;BME280;10220;42.716;23.306;2023-04-21T05:12:38;94916.81;;;12.52;100.00
20119;BME280;10220;42.716;23.306;2023-04-21T05:15:05;94934.59;;;12.96;100.00
20119;BME280;10220;42.716;23.306;2023-04-21T05:17:32;94934.13;;;12.88;100.00
20119;BME280;10220;42.716;23.306;2023-04-21T05:19:57;94930.22;;;13.19;100.00
20119;BME280;10220;42.716;23.306;2023-04-21T05:22:22;94940.63;;;13.08;100.00
20119;BME280;10220;42.716;23.306;2023-04-21T05:24:48;94931.13;;;12.84;100.00
20119;BME280;10220;42.716;23.306;2023-04-21T05:27:13;94936.09;;;13.15;100.00
20119;BME280;10220;42.716;23.306;2023-04-21T05:29:39;94937.22;;;13.19;100.00
20119;BME280;10220;42.716;23.306;2023-04-21T05:32:04;94933.97;;;13.46;100.00
20119;BME280;10220;42.716;23.306;2023-04-21T05:34:30;94931.91;;;13.02;100.00
20119;BME280;10220;42.716;23.306;2023-04-21T05:36:56;94931.22;;;12.78;100.00
20119;BME280;10220;42.716;23.306;2023-04-21T05:39:21;94925.59;;;12.81;100.00
20119;BME280;10220;42.716;23.306;2023-04-21T05:41:47;94932.09;;;13.01;100.00
20119;BME280;10220;42.716;23.306;2023-04-21T05:44:14;94919.13;;;12.72;100.00
20119;BME280;10220;42.716;23.306;2023-04-21T05:46:40;94930.44;;;13.06;100.00
20119;BME280;10220;42.716;23.306;2023-04-21T05:49:05;94930.78;;;12.98;100.00
20119;BME280;10220;42.716;23.306;2023-04-21T05:51:31;94926.75;;;13.37;100.00
20119;BME280;10220;42.716;23.306;2023-04-21T05:53:56;94933.69;;;13.02;100.00
20119;BME280;10220;42.716;23.306;2023-04-21T05:56:21;94901.69;;;12.90;100.00
20119;BME280;10220;42.716;23.306;2023-04-21T05:58:47;94934.38;;;12.97;100.00
20119;BME280;10220;42.716;23.306;2023-04-21T06:01:12;94919.13;;;13.12;100.00
20119;BME280;10220;42.716;23.306;2023-04-21T06:03:37;94919.00;;;12.96;100.00
20119;BME280;10220;42.716;23.306;2023-04-21T06:06:04;94919.81;;;12.79;100.00
20119;BME280;10220;42.716;23.306;2023-04-21T06:08:30;94916.09;;;13.15;100.00
20119;BME280;10220;42.716;23.306;2023-04-21T06:10:56;94915.44;;;13.31;100.00
20119;BME280;10220;42.716;23.306;2023-04-21T06:13:22;94904.00;;;13.21;100.00
20119;BME280;10220;42.716;23.306;2023-04-21T06:15:47;94910.22;;;13.43;100.00
20119;BME280;10220;42.716;23.306;2023-04-21T06:18:12;94909.75;;;13.68;100.00
20119;BME280;10220;42.716;23.306;2023-04-21T06:20:38;94923.78;;;13.45;100.00
20119;BME280;10220;42.716;23.306;2023-04-21T06:23:05;94901.56;;;13.88;100.00
20119;BME280;10220;42.716;23.306;2023-04-21T06:25:30;94905.97;;;13.99;100.00
20119;BME280;10220;42.716;23.306;2023-04-21T06:27:56;94912.28;;;14.25;100.00
20119;BME280;10220;42.716;23.306;2023-04-21T06:30:21;94919.66;;;14.28;100.00
20119;BME280;10220;42.716;23.306;2023-04-21T06:32:46;94904.81;;;14.17;100.00
20119;BME280;10220;42.716;23.306;2023-04-21T06:35:13;94904.78;;;13.55;100.00
20119;BME280;10220;42.716;23.306;2023-04-21T06:37:40;94910.22;;;13.31;100.00
20119;BME280;10220;42.716;23.306;2023-04-21T06:40:06;94915.50;;;13.13;100.00
20119;BME280;10220;42.716;23.306;2023-04-21T06:42:32;94891.75;;;12.98;100.00
20119;BME280;10220;42.716;23.306;2023-04-21T06:44:57;94908.06;;;13.62;100.00
20119;BME280;10220;42.716;23.306;2023-04-21T06:47:22;94892.72;;;14.00;100.00
20119;BME280;10220;42.716;23.306;2023-04-21T06:49:48;94892.56;;;14.73;100.00
20119;BME280;10220;42.716;23.306;2023-04-21T06:52:13;94880.38;;;15.07;100.00
20119;BME280;10220;42.716;23.306;2023-04-21T06:54:39;94885.44;;;15.46;100.00
20119;BME280;10220;42.716;23.306;2023-04-21T06:57:04;94876.63;;;15.19;100.00
20119;BME280;10220;42.716;23.306;2023-04-21T06:59:30;94892.16;;;15.26;100.00
20119;BME280;10220;42.716;23.306;2023-04-21T07:01:56;94889.88;;;15.29;100.00
20119;BME280;10220;42.716;23.306;2023-04-21T07:04:21;94875.84;;;15.51;100.00
20119;BME280;10220;42.716;23.306;2023-04-21T07:06:47;94892.78;;;15.65;100.00
20119;BME280;10220;42.716;23.306;2023-04-21T07:09:13;94888.56;;;15.64;98.67
20119;BME280;10220;42.716;23.306;2023-04-21T07:11:38;94881.56;;;15.86;100.00
20119;BME280;10220;42.716;23.306;2023-04-21T07:14:04;94885.44;;;15.84;99.82
20119;BME280;10220;42.716;23.306;2023-04-21T07:16:30;94893.53;;;15.82;98.50
20119;BME280;10220;42.716;23.306;2023-04-21T07:18:56;94885.09;;;15.59;99.09
20119;BME280;10220;42.716;23.306;2023-04-21T07:21:21;94880.03;;;15.90;97.10
20119;BME280;10220;42.716;23.306;2023-04-21T07:23:47;94896.72;;;15.19;97.67
20119;BME280;10220;42.716;23.306;2023-04-21T07:26:12;94887.88;;;14.87;100.00
20119;BME280;10220;42.716;23.306;2023-04-21T07:28:38;94894.75;;;14.93;100.00
20119;BME280;10220;42.716;23.306;2023-04-21T07:31:05;94876.97;;;14.90;100.00
20119;BME280;10220;42.716;23.306;2023-04-21T07:33:31;94871.28;;;15.09;100.00
20119;BME280;10220;42.716;23.306;2023-04-21T07:35:56;94880.59;;;14.89;100.00
20119;BME280;10220;42.716;23.306;2023-04-21T07:38:22;94890.91;;;15.61;100.00
20119;BME280;10220;42.716;23.306;2023-04-21T07:40:47;94878.66;;;15.28;98.09
20119;BME280;10220;42.716;23.306;2023-04-21T07:43:26;94876.09;;;15.01;100.00
20119;BME280;10220;42.716;23.306;2023-04-21T07:46:30;94888.78;;;15.41;97.55
20119;BME280;10220;42.716;23.306;2023-04-21T07:48:56;94873.28;;;15.35;97.42
20119;BME280;10220;42.716;23.306;2023-04-21T07:51:22;94885.34;;;15.57;98.58
20119;BME280;10220;42.716;23.306;2023-04-21T07:53:48;94880.47;;;16.03;96.78
20119;BME280;10220;42.716;23.306;2023-04-21T07:56:14;94869.03;;;16.26;96.34
20119;BME280;10220;42.716;23.306;2023-04-21T07:58:39;94871.44;;;16.32;90.43
20119;BME280;10220;42.716;23.306;2023-04-21T08:01:05;94892.16;;;16.39;92.63
20119;BME280;10220;42.716;23.306;2023-04-21T08:03:31;94898.81;;;15.33;94.73
20119;BME280;10220;42.716;23.306;2023-04-21T08:05:56;94878.34;;;15.41;96.97
20119;BME280;10220;42.716;23.306;2023-04-21T08:08:22;94895.25;;;15.39;97.58
20119;BME280;10220;42.716;23.306;2023-04-21T08:10:47;94893.38;;;15.72;98.48
20119;BME280;10220;42.716;23.306;2023-04-21T08:13:13;94891.09;;;15.76;99.73
20119;BME280;10220;42.716;23.306;2023-04-21T08:15:39;94881.63;;;15.91;99.91
20119;BME280;10220;42.716;23.306;2023-04-21T08:18:05;94855.97;;;16.26;95.00
20119;BME280;10220;42.716;23.306;2023-04-21T08:20:30;94877.91;;;16.08;95.27
20119;BME280;10220;42.716;23.306;2023-04-21T08:22:56;94876.41;;;16.12;92.57
20119;BME280;10220;42.716;23.306;2023-04-21T08:25:22;94869.88;;;16.57;93.42
20119;BME280;10220;42.716;23.306;2023-04-21T08:27:47;94884.88;;;16.67;90.23
20119;BME280;10220;42.716;23.306;2023-04-21T08:30:13;94861.72;;;16.06;87.58
20119;BME280;10220;42.716;23.306;2023-04-21T08:32:38;94891.53;;;15.89;88.98
20119;BME280;10220;42.716;23.306;2023-04-21T08:35:04;94881.31;;;15.87;90.39
20119;BME280;10220;42.716;23.306;2023-04-21T08:37:29;94878.19;;;15.31;91.28
20119;BME280;10220;42.716;23.306;2023-04-21T08:39:55;94838.88;;;15.05;92.63
20119;BME280;10220;42.716;23.306;2023-04-21T08:42:20;94871.28;;;16.22;93.24
20119;BME280;10220;42.716;23.306;2023-04-21T08:44:46;94869.03;;;16.78;92.81
20119;BME280;10220;42.716;23.306;2023-04-21T08:47:13;94855.78;;;17.21;88.49
20119;BME280;10220;42.716;23.306;2023-04-21T08:49:49;94856.31;;;17.23;82.62
20119;BME280;10220;42.716;23.306;2023-04-21T08:52:15;94874.28;;;16.78;82.57
20119;BME280;10220;42.716;23.306;2023-04-21T08:54:41;94866.00;;;16.91;79.45
20119;BME280;10220;42.716;23.306;2023-04-21T08:57:06;94878.03;;;16.61;80.17
20119;BME280;10220;42.716;23.306;2023-04-21T08:59:32;94854.50;;;17.23;81.64
20119;BME280;10220;42.716;23.306;2023-04-21T09:02:08;94859.53;;;17.66;80.45
20119;BME280;10220;42.716;23.306;2023-04-21T09:04:36;94859.31;;;17.31;78.76
20119;BME280;10220;42.716;23.306;2023-04-21T09:07:02;94856.56;;;17.99;83.04
20119;BME280;10220;42.716;23.306;2023-04-21T09:09:27;94849.41;;;18.40;76.17
20119;BME280;10220;42.716;23.306;2023-04-21T09:11:54;94854.72;;;18.80;75.21
20119;BME280;10220;42.716;23.306;2023-04-21T09:14:21;94848.69;;;18.84;69.69
20119;BME280;10220;42.716;23.306;2023-04-21T09:16:58;94843.47;;;18.89;71.00
20119;BME280;10220;42.716;23.306;2023-04-21T09:19:28;94839.91;;;18.29;71.04
20119;BME280;10220;42.716;23.306;2023-04-21T09:21:53;94840.38;;;17.65;70.32
20119;BME280;10220;42.716;23.306;2023-04-21T09:24:19;94832.56;;;17.29;68.24
20119;BME280;10220;42.716;23.306;2023-04-21T09:26:49;94834.03;;;17.57;70.88
20119;BME280;10220;42.716;23.306;2023-04-21T09:29:16;94815.19;;;17.55;70.53
20119;BME280;10220;42.716;23.306;2023-04-21T09:31:43;94828.09;;;18.32;67.45
20119;BME280;10220;42.716;23.306;2023-04-21T09:34:23;94821.91;;;17.92;62.95
20119;BME280;10220;42.716;23.306;2023-04-21T09:37:02;94828.75;;;17.47;68.79
20119;BME280;10220;42.716;23.306;2023-04-21T09:39:30;94831.09;;;17.12;68.08
20119;BME280;10220;42.716;23.306;2023-04-21T09:41:57;94822.34;;;17.69;72.11
20119;BME280;10220;42.716;23.306;2023-04-21T09:44:27;94803.19;;;18.25;70.42
20119;BME280;10220;42.716;23.306;2023-04-21T09:47:02;94810.03;;;18.40;64.90
20119;BME280;10220;42.716;23.306;2023-04-21T09:49:29;94812.38;;;18.37;68.97
20119;BME280;10220;42.716;23.306;2023-04-21T09:52:00;94827.38;;;17.34;68.49
20119;BME280;10220;42.716;23.306;2023-04-21T09:54:35;94796.75;;;17.03;73.58
20119;BME280;10220;42.716;23.306;2023-04-21T09:57:04;94819.97;;;17.26;76.74
20119;BME280;10220;42.716;23.306;2023-04-21T09:59:34;94819.47;;;17.24;67.41
20119;BME280;10220;42.716;23.306;2023-04-21T10:02:00;94795.13;;;17.29;67.17
20119;BME280;10220;42.716;23.306;2023-04-21T10:04:30;94808.50;;;17.37;72.12
20119;BME280;10220;42.716;23.306;2023-04-21T10:06:56;94798.22;;;17.62;73.90
20119;BME280;10220;42.716;23.306;2023-04-21T10:09:24;94817.22;;;17.48;73.63
20119;BME280;10220;42.716;23.306;2023-04-21T10:11:52;94806.16;;;17.36;75.65
20119;BME280;10220;42.716;23.306;2023-04-21T10:14:19;94812.28;;;17.51;75.76
20119;BME280;10220;42.716;23.306;2023-04-21T10:16:55;94807.72;;;17.78;74.94
20119;BME280;10220;42.716;23.306;2023-04-21T10:19:25;94808.63;;;18.13;72.58
20119;BME280;10220;42.716;23.306;2023-04-21T10:21:54;94802.06;;;18.11;70.12
20119;BME280;10220;42.716;23.306;2023-04-21T10:24:21;94794.88;;;18.82;70.18
20119;BME280;10220;42.716;23.306;2023-04-21T10:26:49;94797.44;;;19.51;66.22
20119;BME280;10220;42.716;23.306;2023-04-21T10:29:15;94806.41;;;19.31;64.26
20119;BME280;10220;42.716;23.306;2023-04-21T10:39:30;94794.06;;;18.62;65.64
20119;BME280;10220;42.716;23.306;2023-04-21T10:44:59;94789.28;;;18.24;63.65
20119;BME280;10220;42.716;23.306;2023-04-21T10:47:27;94787.78;;;18.87;63.97
20119;BME280;10220;42.716;23.306;2023-04-21T10:49:57;94783.06;;;19.14;56.96
20119;BME280;10220;42.716;23.306;2023-04-21T10:52:32;94782.78;;;19.01;56.78
20119;BME280;10220;42.716;23.306;2023-04-21T10:57:23;94780.16;;;19.01;58.99
20119;BME280;10220;42.716;23.306;2023-04-21T10:59:49;94781.19;;;19.40;59.20
20119;BME280;10220;42.716;23.306;2023-04-21T11:02:16;94793.81;;;19.28;58.56
20119;BME280;10220;42.716;23.306;2023-04-21T11:04:49;94772.28;;;18.61;60.28
20119;BME280;10220;42.716;23.306;2023-04-21T11:07:18;94787.25;;;18.81;62.14
20119;BME280;10220;42.716;23.306;2023-04-21T11:09:46;94791.72;;;18.95;64.40
20119;BME280;10220;42.716;23.306;2023-04-21T11:12:14;94776.25;;;19.08;65.18
20119;BME280;10220;42.716;23.306;2023-04-21T11:14:42;94751.03;;;19.17;61.76
20119;BME280;10220;42.716;23.306;2023-04-21T11:17:12;94783.00;;;19.49;62.11
20119;BME280;10220;42.716;23.306;2023-04-21T11:19:38;94779.66;;;19.14;58.83
20119;BME280;10220;42.716;23.306;2023-04-21T11:22:05;94767.53;;;19.33;56.78
20119;BME280;10220;42.716;23.306;2023-04-21T11:24:31;94779.38;;;19.20;59.84
20119;BME280;10220;42.716;23.306;2023-04-21T11:26:57;94771.16;;;19.51;60.24
20119;BME280;10220;42.716;23.306;2023-04-21T11:29:25;94785.16;;;19.27;62.14
20119;BME280;10220;42.716;23.306;2023-04-21T11:31:50;94779.38;;;18.61;71.05
20119;BME280;10220;42.716;23.306;2023-04-21T11:34:20;94770.69;;;18.55;70.93
20119;BME280;10220;42.716;23.306;2023-04-21T11:36:47;94781.75;;;18.87;69.53
20119;BME280;10220;42.716;23.306;2023-04-21T11:39:14;94768.34;;;19.03;63.29
20119;BME280;10220;42.716;23.306;2023-04-21T11:41:42;94777.78;;;19.29;56.40
20119;BME280;10220;42.716;23.306;2023-04-21T11:44:11;94768.41;;;19.86;54.93
20119;BME280;10220;42.716;23.306;2023-04-21T11:46:43;94775.59;;;20.34;52.09
20119;BME280;10220;42.716;23.306;2023-04-21T11:49:11;94770.13;;;20.63;50.82
20119;BME280;10220;42.716;23.306;2023-04-21T11:51:38;94769.28;;;21.34;49.78
20119;BME280;10220;42.716;23.306;2023-04-21T11:54:06;94748.47;;;21.84;45.85
20119;BME280;10220;42.716;23.306;2023-04-21T11:56:42;94760.03;;;21.88;44.53
20119;BME280;10220;42.716;23.306;2023-04-21T11:59:11;94774.88;;;20.62;45.47
20119;BME280;10220;42.716;23.306;2023-04-21T12:01:47;94776.31;;;19.96;48.90
20119;BME280;10220;42.716;23.306;2023-04-21T12:04:24;94776.78;;;20.08;50.83
20119;BME280;10220;42.716;23.306;2023-04-21T12:07:02;94783.81;;;20.61;51.06
20119;BME280;10220;42.716;23.306;2023-04-21T12:09:28;94744.94;;;19.37;52.01
20119;BME280;10220;42.716;23.306;2023-04-21T12:11:56;94780.75;;;19.96;51.83
20119;BME280;10220;42.716;23.306;2023-04-21T12:14:23;94784.25;;;19.71;52.58
20119;BME280;10220;42.716;23.306;2023-04-21T12:16:53;94785.16;;;19.27;52.35
20119;BME280;10220;42.716;23.306;2023-04-21T12:19:37;94785.94;;;19.28;53.70
20119;BME280;10220;42.716;23.306;2023-04-21T12:22:11;94793.31;;;19.26;56.04
20119;BME280;10220;42.716;23.306;2023-04-21T12:24:37;94788.28;;;18.75;55.19
20119;BME280;10220;42.716;23.306;2023-04-21T12:27:03;94781.47;;;18.93;56.30
20119;BME280;10220;42.716;23.306;2023-04-21T12:29:32;94779.91;;;19.22;56.89
20119;BME280;10220;42.716;23.306;2023-04-21T12:32:02;94777.72;;;19.54;56.21
20119;BME280;10220;42.716;23.306;2023-04-21T12:34:28;94773.88;;;19.17;56.22
20119;BME280;10220;42.716;23.306;2023-04-21T12:36:54;94791.69;;;19.44;58.83
20119;BME280;10220;42.716;23.306;2023-04-21T12:39:19;94784.56;;;19.55;59.52
20119;BME280;10220;42.716;23.306;2023-04-21T12:41:46;94786.19;;;18.86;58.53
20119;BME280;10220;42.716;23.306;2023-04-21T12:44:12;94788.03;;;18.81;59.94
20119;BME280;10220;42.716;23.306;2023-04-21T12:46:38;94784.38;;;19.07;59.34
20119;BME280;10220;42.716;23.306;2023-04-21T12:49:04;94785.44;;;19.16;58.20
20119;BME280;10220;42.716;23.306;2023-04-21T12:51:32;94777.03;;;19.09;58.98
20119;BME280;10220;42.716;23.306;2023-04-21T12:53:57;94769.66;;;18.66;60.61
20119;BME280;10220;42.716;23.306;2023-04-21T12:56:22;94766.25;;;18.85;62.24